Terminal Aerodrome Forecast
Issued by NWS

Home | Current Version | Previous Version | Text Only | Print | Product List | Glossary Off
Versions: 1 2 3 4 5 6 7 8 9 10 11 12 13 14 15 16 17 18

000
FTUS43 KBIS 150500
TAFMOT
TAF
KMOT 150529Z 1506/1606 12006KT P6SM SCT250
     FM151200 14012KT P6SM BKN100
     FM151500 14017G23KT P6SM BKN070
     FM152100 11018G23KT P6SM VCSH SCT025 OVC035
     FM160200 08015G22KT 2SM -SN BKN025 OVC035=

USA.gov is the U.S. government's official web portal to all federal, state and local government web resources and services.